createdAt,value
2023-07-18T00:00:30.131Z,11.15
2023-07-18T00:03:31.740Z,11.02
2023-07-18T00:06:36.208Z,10.85
2023-07-18T00:09:41.882Z,10.70
2023-07-18T00:12:43.383Z,10.71
2023-07-18T00:15:46.316Z,10.63
2023-07-18T00:18:47.866Z,10.64
2023-07-18T00:21:53.522Z,10.55
2023-07-18T00:24:55.170Z,10.93
2023-07-18T00:27:56.852Z,10.82
2023-07-18T00:30:59.748Z,10.68
2023-07-18T00:34:01.313Z,10.60
2023-07-18T00:37:06.193Z,10.69
2023-07-18T00:40:13.397Z,10.85
2023-07-18T00:43:15.310Z,11.00
2023-07-18T00:46:18.730Z,11.07
2023-07-18T00:49:20.370Z,10.89
2023-07-18T00:52:22.481Z,10.87
2023-07-18T00:55:24.158Z,10.94
2023-07-18T00:58:25.768Z,10.89
2023-07-18T01:01:32.429Z,10.83
2023-07-18T01:04:38.058Z,11.15
2023-07-18T01:07:45.373Z,11.13
2023-07-18T01:10:46.941Z,11.11
2023-07-18T01:13:48.348Z,11.10
2023-07-18T01:16:51.933Z,11.07
2023-07-18T01:19:53.547Z,11.29
2023-07-18T01:23:00.063Z,11.30
2023-07-18T01:26:01.899Z,11.32
2023-07-18T01:29:03.465Z,11.25
2023-07-18T01:32:05.056Z,10.93
2023-07-18T01:35:07.981Z,10.83
2023-07-18T01:38:17.110Z,10.67
2023-07-18T01:41:19.038Z,10.79
2023-07-18T01:44:21.004Z,10.69
2023-07-18T01:47:22.472Z,10.78
2023-07-18T01:50:24.332Z,10.69
2023-07-18T01:53:27.395Z,10.73
2023-07-18T01:56:29.876Z,10.79
2023-07-18T01:59:31.517Z,10.77
2023-07-18T02:02:33.172Z,10.60
2023-07-18T02:05:34.747Z,10.53
2023-07-18T02:08:44.153Z,10.52
2023-07-18T02:11:45.699Z,10.56
2023-07-18T02:14:47.124Z,10.60
2023-07-18T02:17:49.655Z,10.64
2023-07-18T02:20:52.280Z,10.63
2023-07-18T02:23:55.014Z,10.53
2023-07-18T02:26:56.616Z,10.41
2023-07-18T02:29:58.097Z,10.35
2023-07-18T02:32:59.678Z,10.26
2023-07-18T02:36:01.286Z,10.26
2023-07-18T02:39:08.691Z,10.22
2023-07-18T02:42:13.781Z,10.19
2023-07-18T02:45:15.479Z,10.28
2023-07-18T02:48:16.906Z,10.41
2023-07-18T02:51:18.750Z,10.48
2023-07-18T02:54:21.788Z,10.56
2023-07-18T02:57:27.171Z,10.55
2023-07-18T03:00:28.723Z,10.52
2023-07-18T03:03:30.408Z,10.56
2023-07-18T03:06:32.030Z,10.59
2023-07-18T03:09:38.499Z,10.55
2023-07-18T03:12:40.122Z,10.57
2023-07-18T03:15:42.203Z,10.41
2023-07-18T03:18:43.796Z,10.57
2023-07-18T03:21:45.315Z,10.50
2023-07-18T03:24:52.051Z,10.53
2023-07-18T03:27:57.904Z,10.78
2023-07-18T03:31:00.311Z,10.88
2023-07-18T03:34:01.788Z,11.02
2023-07-18T03:37:03.483Z,11.18
2023-07-18T03:40:10.167Z,11.30
2023-07-18T03:43:16.095Z,11.34
2023-07-18T03:46:17.566Z,11.38
2023-07-18T03:49:19.137Z,11.42
2023-07-18T03:52:20.523Z,11.55
2023-07-18T03:55:26.551Z,11.60
2023-07-18T03:58:31.493Z,11.58
2023-07-18T04:01:32.935Z,11.62
2023-07-18T04:04:34.490Z,11.79
2023-07-18T04:07:35.930Z,11.93
2023-07-18T04:10:42.838Z,11.96
2023-07-18T04:13:44.416Z,11.90
2023-07-18T04:16:45.864Z,11.75
2023-07-18T04:19:47.537Z,11.80
2023-07-18T04:22:49.142Z,11.79
2023-07-18T04:26:02.895Z,11.80
2023-07-18T04:29:10.637Z,11.98
2023-07-18T04:32:12.187Z,12.29
2023-07-18T04:35:13.832Z,12.82
2023-07-18T04:38:15.283Z,14.28
2023-07-18T04:41:18.488Z,15.24
2023-07-18T04:44:20.367Z,15.84
2023-07-18T04:47:22.000Z,15.75
2023-07-18T04:50:23.618Z,15.84
2023-07-18T04:53:26.688Z,15.54
2023-07-18T04:56:33.588Z,15.68
2023-07-18T04:59:35.879Z,14.24
2023-07-18T05:02:37.595Z,13.97
2023-07-18T05:05:39.133Z,13.81
2023-07-18T05:08:40.659Z,14.01
2023-07-18T05:11:50.089Z,15.54
2023-07-18T05:14:51.944Z,14.53
2023-07-18T05:17:53.607Z,13.96
2023-07-18T05:20:57.542Z,15.29
2023-07-18T05:23:59.086Z,16.63
2023-07-18T05:27:02.679Z,17.03
2023-07-18T05:30:06.847Z,18.50
2023-07-18T05:33:09.727Z,16.69
2023-07-18T05:36:11.753Z,18.70
2023-07-18T05:39:13.296Z,19.31
2023-07-18T05:42:16.440Z,19.31
2023-07-18T05:45:18.044Z,19.04
2023-07-18T05:48:20.038Z,17.45
2023-07-18T05:51:22.046Z,15.82
2023-07-18T05:54:24.188Z,15.73
2023-07-18T05:57:31.917Z,15.60
2023-07-18T06:00:36.915Z,15.75
2023-07-18T06:03:38.736Z,16.09
2023-07-18T06:06:40.339Z,16.18
2023-07-18T06:09:44.273Z,15.93
2023-07-18T06:12:47.306Z,15.90
2023-07-18T06:15:49.271Z,16.30
2023-07-18T06:18:50.901Z,16.17
2023-07-18T06:21:52.622Z,16.49
2023-07-18T06:24:54.250Z,16.41
2023-07-18T06:27:57.199Z,16.72
2023-07-18T06:30:59.150Z,16.80
2023-07-18T06:34:00.744Z,16.97
2023-07-18T06:37:02.788Z,16.98
2023-07-18T06:40:06.978Z,16.78
2023-07-18T06:43:13.728Z,16.85
2023-07-18T06:46:15.358Z,16.96
2023-07-18T06:49:17.101Z,17.22
2023-07-18T06:52:18.876Z,17.06
2023-07-18T06:55:20.515Z,17.22
2023-07-18T06:58:26.295Z,17.09
2023-07-18T07:01:27.966Z,17.22
2023-07-18T07:04:29.564Z,17.36
2023-07-18T07:07:31.155Z,17.51
2023-07-18T07:10:32.712Z,17.85
2023-07-18T07:13:40.754Z,17.76
2023-07-18T07:16:47.822Z,17.80
2023-07-18T07:19:51.439Z,17.74
2023-07-18T07:22:53.953Z,17.84
2023-07-18T07:25:55.647Z,17.79
2023-07-18T07:28:58.911Z,17.83
2023-07-18T07:32:00.661Z,18.01
2023-07-18T07:35:02.328Z,17.88
2023-07-18T07:38:04.379Z,18.05
2023-07-18T07:41:06.156Z,18.11
2023-07-18T07:44:12.441Z,18.22
2023-07-18T07:47:14.284Z,18.51
2023-07-18T07:50:17.731Z,18.41
2023-07-18T07:53:19.353Z,18.45
2023-07-18T07:56:23.294Z,18.52
2023-07-18T07:59:26.441Z,18.66
2023-07-18T08:02:28.227Z,18.65
2023-07-18T08:05:29.904Z,18.81
2023-07-18T08:08:31.766Z,18.91
2023-07-18T08:11:33.489Z,19.28
2023-07-18T08:14:40.199Z,19.57
2023-07-18T08:17:45.467Z,19.49
2023-07-18T08:20:47.613Z,19.37
2023-07-18T08:23:50.205Z,19.32
2023-07-18T08:26:54.903Z,19.40
2023-07-18T08:30:00.505Z,19.46
2023-07-18T08:33:02.394Z,19.32
2023-07-18T08:36:05.105Z,19.54
2023-07-18T08:39:11.418Z,18.90
2023-07-18T08:42:15.810Z,18.51
2023-07-18T08:45:20.905Z,18.95
2023-07-18T08:48:22.655Z,19.42
2023-07-18T08:51:24.596Z,19.63
2023-07-18T08:54:26.214Z,19.69
2023-07-18T08:57:27.901Z,19.82
2023-07-18T09:00:31.432Z,20.16
2023-07-18T09:03:33.192Z,19.93
2023-07-18T09:06:34.799Z,20.19
2023-07-18T09:12:39.052Z,20.11
2023-07-18T09:15:45.539Z,19.53
2023-07-18T09:18:53.314Z,20.28
2023-07-18T09:21:59.408Z,20.56
2023-07-18T09:25:01.047Z,19.89
2023-07-18T09:28:03.122Z,20.36
2023-07-18T09:31:16.305Z,20.91
2023-07-18T09:34:18.738Z,20.83
2023-07-18T09:37:20.363Z,20.55
2023-07-18T09:40:28.596Z,20.41
2023-07-18T09:43:31.507Z,19.82
2023-07-18T09:46:34.877Z,19.78
2023-07-18T09:52:47.644Z,19.87
2023-07-18T09:55:49.803Z,21.21
2023-07-18T09:58:51.430Z,21.41
2023-07-18T10:01:55.278Z,20.96
2023-07-18T10:04:57.051Z,22.19
2023-07-18T10:08:04.426Z,22.80
2023-07-18T10:11:06.674Z,22.75
2023-07-18T10:14:14.698Z,22.69
2023-07-18T10:17:36.980Z,21.29
2023-07-18T10:20:38.872Z,22.06
2023-07-18T10:23:41.671Z,22.28
2023-07-18T10:26:43.568Z,22.54
2023-07-18T10:30:02.276Z,22.83
2023-07-18T10:33:05.883Z,22.62
2023-07-18T10:36:24.295Z,22.52
2023-07-18T10:39:37.089Z,21.84
2023-07-18T10:42:44.054Z,21.07
2023-07-18T10:45:46.202Z,22.08
2023-07-18T10:48:50.830Z,23.22
2023-07-18T10:51:54.826Z,22.73
2023-07-18T10:54:57.931Z,22.94
2023-07-18T10:57:59.555Z,22.55
2023-07-18T11:01:02.310Z,22.40
2023-07-18T11:04:08.707Z,21.78
2023-07-18T11:07:10.517Z,20.74
2023-07-18T11:10:12.926Z,22.34
2023-07-18T11:13:14.575Z,22.73
2023-07-18T11:16:17.524Z,23.16
2023-07-18T11:19:21.744Z,23.47
2023-07-18T11:22:23.762Z,23.30
2023-07-18T11:25:25.367Z,23.78
2023-07-18T11:28:29.582Z,23.42
2023-07-18T11:34:38.744Z,23.30
2023-07-18T11:37:42.753Z,23.58
2023-07-18T11:40:45.025Z,24.30
2023-07-18T11:43:49.442Z,23.13
2023-07-18T11:46:53.237Z,23.22
2023-07-18T11:50:04.652Z,23.11
2023-07-18T11:53:06.793Z,23.51
2023-07-18T11:56:08.425Z,23.43
2023-07-18T11:59:10.293Z,23.64
2023-07-18T12:02:12.013Z,23.93
2023-07-18T12:05:15.777Z,22.91
2023-07-18T12:08:17.853Z,22.90
2023-07-18T12:11:20.021Z,22.92
2023-07-18T12:14:21.612Z,22.71
2023-07-18T12:17:23.272Z,23.21
2023-07-18T12:20:26.443Z,22.36
2023-07-18T12:23:28.108Z,22.26
2023-07-18T12:26:29.853Z,22.89
2023-07-18T12:29:34.199Z,24.17
2023-07-18T12:32:37.602Z,24.30
2023-07-18T12:35:44.344Z,23.42
2023-07-18T12:38:45.894Z,23.50
2023-07-18T12:41:50.191Z,22.92
2023-07-18T12:44:52.365Z,24.05
2023-07-18T12:47:54.125Z,23.93
2023-07-18T12:50:57.512Z,23.18
2023-07-18T12:53:59.138Z,23.13
2023-07-18T12:57:01.126Z,22.47
2023-07-18T13:00:03.090Z,23.93
2023-07-18T13:03:04.920Z,24.20
2023-07-18T13:06:08.007Z,23.08
2023-07-18T13:09:11.154Z,22.60
2023-07-18T13:12:12.729Z,23.58
2023-07-18T13:15:14.699Z,23.81
2023-07-18T13:18:16.619Z,23.43
2023-07-18T13:21:19.580Z,24.12
2023-07-18T13:24:21.203Z,23.95
2023-07-18T13:27:23.247Z,24.91
2023-07-18T13:30:27.925Z,24.76
2023-07-18T13:33:30.228Z,24.11
2023-07-18T13:36:35.698Z,24.27
2023-07-18T13:39:37.425Z,24.28
2023-07-18T13:42:39.066Z,24.10
2023-07-18T13:45:40.866Z,24.00
2023-07-18T13:48:42.571Z,24.07
2023-07-18T13:51:45.549Z,24.10
2023-07-18T13:54:47.753Z,23.71
2023-07-18T13:57:49.374Z,24.24
2023-07-18T14:00:51.206Z,23.82
2023-07-18T14:03:53.174Z,24.11
2023-07-18T14:06:56.600Z,24.17
2023-07-18T14:09:58.192Z,24.37
2023-07-18T14:12:59.830Z,24.40
2023-07-18T14:16:01.961Z,23.24
2023-07-18T14:19:03.680Z,23.43
2023-07-18T14:22:06.728Z,23.27
2023-07-18T14:25:08.644Z,23.99
2023-07-18T14:28:10.337Z,24.42
2023-07-18T14:31:12.124Z,24.58
2023-07-18T14:34:15.769Z,24.63
2023-07-18T14:37:18.710Z,24.50
2023-07-18T14:40:20.334Z,24.25
2023-07-18T14:43:29.209Z,24.44
2023-07-18T14:46:30.877Z,24.44
2023-07-18T14:49:32.854Z,24.36
2023-07-18T14:52:36.049Z,24.40
2023-07-18T14:55:37.826Z,23.89
2023-07-18T14:58:39.635Z,24.48
2023-07-18T15:01:41.673Z,24.40
2023-07-18T15:04:43.364Z,24.16
2023-07-18T15:07:46.369Z,23.87
2023-07-18T15:10:47.962Z,24.24
2023-07-18T15:13:50.078Z,23.79
2023-07-18T15:16:52.740Z,24.01
2023-07-18T15:19:54.608Z,24.06
2023-07-18T15:23:00.756Z,24.16
2023-07-18T15:26:02.643Z,23.61
2023-07-18T15:29:09.385Z,23.85
2023-07-18T15:32:10.958Z,24.09
2023-07-18T15:35:12.600Z,24.02
2023-07-18T15:38:15.807Z,23.97
2023-07-18T15:41:17.757Z,24.05
2023-07-18T15:44:19.573Z,24.43
2023-07-18T15:47:21.176Z,23.95
2023-07-18T15:50:23.057Z,24.06
2023-07-18T15:53:26.107Z,23.55
2023-07-18T15:56:27.801Z,22.93
2023-07-18T15:59:30.449Z,23.43
2023-07-18T16:02:33.061Z,24.22
2023-07-18T16:05:37.419Z,24.52
2023-07-18T16:08:40.492Z,24.55
2023-07-18T16:11:42.063Z,24.62
2023-07-18T16:14:43.733Z,24.25
2023-07-18T16:17:45.348Z,23.24
2023-07-18T16:20:46.903Z,23.75
2023-07-18T16:23:50.274Z,23.91
2023-07-18T16:26:51.945Z,23.84
2023-07-18T16:29:53.825Z,23.41
2023-07-18T16:32:55.677Z,22.55
2023-07-18T16:35:57.532Z,22.19
2023-07-18T16:39:00.495Z,22.27
2023-07-18T16:42:13.522Z,23.11
2023-07-18T16:45:24.355Z,23.74
2023-07-18T16:48:26.635Z,23.86
2023-07-18T16:51:28.946Z,23.93
2023-07-18T16:54:32.077Z,23.79
2023-07-18T16:57:33.720Z,23.82
2023-07-18T17:00:35.340Z,23.84
2023-07-18T17:03:37.003Z,23.74
2023-07-18T17:06:38.935Z,23.54
2023-07-18T17:09:42.093Z,23.42
2023-07-18T17:12:43.939Z,23.48
2023-07-18T17:15:45.576Z,23.61
2023-07-18T17:18:47.356Z,22.65
2023-07-18T17:21:48.951Z,22.52
2023-07-18T17:24:52.240Z,22.75
2023-07-18T17:27:54.082Z,22.94
2023-07-18T17:30:55.776Z,22.98
2023-07-18T17:33:57.417Z,22.86
2023-07-18T17:36:59.150Z,23.00
2023-07-18T17:40:02.709Z,23.00
2023-07-18T17:43:04.463Z,22.20
2023-07-18T17:46:06.328Z,22.18
2023-07-18T17:49:07.901Z,22.42
2023-07-18T17:52:09.507Z,22.23
2023-07-18T17:55:12.525Z,22.30
2023-07-18T17:58:14.194Z,21.97
2023-07-18T18:01:15.930Z,21.69
2023-07-18T18:04:17.871Z,21.31
2023-07-18T18:07:19.407Z,21.69
2023-07-18T18:10:22.692Z,21.44
2023-07-18T18:13:24.391Z,21.02
2023-07-18T18:16:26.623Z,20.49
2023-07-18T18:19:28.404Z,20.54
2023-07-18T18:22:30.181Z,20.08
2023-07-18T18:25:33.297Z,20.27
2023-07-18T18:28:35.064Z,19.87
2023-07-18T18:31:36.844Z,19.62
2023-07-18T18:34:42.742Z,19.67
2023-07-18T18:37:49.341Z,19.51
2023-07-18T18:40:52.560Z,19.54
2023-07-18T18:43:54.296Z,19.35
2023-07-18T18:46:56.104Z,19.87
2023-07-18T18:49:57.746Z,19.85
2023-07-18T18:52:59.450Z,19.06
2023-07-18T18:56:02.597Z,18.90
2023-07-18T18:59:04.183Z,18.71
2023-07-18T19:02:06.590Z,18.50
2023-07-18T19:05:08.966Z,18.08
2023-07-18T19:08:10.774Z,17.92
2023-07-18T19:11:13.716Z,17.81
2023-07-18T19:14:15.597Z,17.42
2023-07-18T19:17:17.259Z,17.21
2023-07-18T19:20:18.944Z,16.91
2023-07-18T19:23:21.552Z,16.59
2023-07-18T19:26:24.925Z,16.51
2023-07-18T19:29:26.561Z,16.37
2023-07-18T19:32:28.220Z,16.38
2023-07-18T19:35:29.872Z,16.24
2023-07-18T19:38:31.495Z,15.86
2023-07-18T19:41:34.455Z,15.78
2023-07-18T19:44:36.169Z,15.68
2023-07-18T19:47:37.938Z,15.45
2023-07-18T19:50:39.936Z,15.04
2023-07-18T19:53:41.721Z,14.84
2023-07-18T19:56:44.764Z,14.80
2023-07-18T19:59:46.338Z,14.73
2023-07-18T20:02:49.118Z,14.83
2023-07-18T20:05:50.902Z,14.64
2023-07-18T20:08:52.562Z,14.33
2023-07-18T20:11:55.580Z,14.31
2023-07-18T20:14:57.215Z,14.25
2023-07-18T20:17:59.372Z,14.17
2023-07-18T20:21:01.009Z,13.99
2023-07-18T20:24:02.948Z,14.14
2023-07-18T20:27:06.196Z,14.10
2023-07-18T20:30:08.590Z,14.50
2023-07-18T20:33:11.168Z,14.29
2023-07-18T20:36:12.795Z,14.72
2023-07-18T20:39:14.372Z,14.42
2023-07-18T20:42:17.428Z,14.29
2023-07-18T20:45:24.811Z,14.08
2023-07-18T20:48:28.133Z,13.64
2023-07-18T20:51:29.705Z,13.61
2023-07-18T20:54:31.612Z,13.82
2023-07-18T20:57:34.642Z,14.36
2023-07-18T21:00:36.401Z,14.58
2023-07-18T21:03:38.022Z,13.79
2023-07-18T21:06:39.680Z,13.57
2023-07-18T21:09:41.240Z,14.38
2023-07-18T21:12:44.173Z,14.14
2023-07-18T21:15:45.749Z,14.21
2023-07-18T21:18:47.333Z,14.35
2023-07-18T21:21:48.916Z,14.19
2023-07-18T21:24:50.447Z,14.06
2023-07-18T21:27:56.125Z,14.11
2023-07-18T21:30:57.750Z,14.18
2023-07-18T21:33:59.373Z,13.40
2023-07-18T21:37:00.937Z,13.32
2023-07-18T21:40:02.605Z,13.50
2023-07-18T21:43:09.646Z,13.53
2023-07-18T21:46:11.440Z,13.56
2023-07-18T21:49:13.188Z,13.77
2023-07-18T21:52:15.222Z,13.69
2023-07-18T21:55:16.814Z,13.57
2023-07-18T21:58:20.605Z,13.41
2023-07-18T22:01:25.510Z,13.55
2023-07-18T22:04:27.131Z,13.58
2023-07-18T22:07:28.938Z,13.69
2023-07-18T22:10:30.809Z,13.78
2023-07-18T22:13:38.216Z,13.90
2023-07-18T22:16:42.602Z,13.70
2023-07-18T22:19:44.200Z,13.63
2023-07-18T22:22:45.775Z,13.54
2023-07-18T22:25:59.603Z,13.55
2023-07-18T22:29:07.620Z,13.61
2023-07-18T22:32:09.421Z,13.58
2023-07-18T22:35:11.120Z,13.48
2023-07-18T22:38:12.665Z,13.55
2023-07-18T22:41:14.249Z,13.55
2023-07-18T22:44:17.153Z,13.60
2023-07-18T22:47:19.035Z,13.51
2023-07-18T22:50:20.722Z,13.48
2023-07-18T22:53:22.459Z,13.39
2023-07-18T22:56:23.982Z,13.31
2023-07-18T22:59:27.031Z,13.43
2023-07-18T23:02:28.899Z,13.23
2023-07-18T23:05:30.670Z,13.14
2023-07-18T23:08:32.614Z,13.16
2023-07-18T23:11:34.229Z,13.24
2023-07-18T23:14:43.252Z,13.27
2023-07-18T23:17:44.838Z,13.22
2023-07-18T23:20:46.499Z,13.27
2023-07-18T23:23:48.047Z,13.36
2023-07-18T23:26:51.412Z,13.47
2023-07-18T23:29:54.342Z,13.51
2023-07-18T23:32:55.934Z,13.00
2023-07-18T23:35:57.606Z,13.05
2023-07-18T23:38:59.224Z,13.27
2023-07-18T23:42:00.782Z,13.44
2023-07-18T23:45:08.777Z,13.51
2023-07-18T23:48:10.376Z,13.36
2023-07-18T23:51:12.007Z,12.91
2023-07-18T23:54:13.569Z,13.10
2023-07-18T23:57:15.126Z,13.30
